createdAt,value
2022-12-13T00:00:42.155Z,1.60
2022-12-13T00:03:50.400Z,1.65
2022-12-13T00:06:58.195Z,1.50
2022-12-13T00:10:07.450Z,1.45
2022-12-13T00:13:17.009Z,1.80
2022-12-13T00:16:25.963Z,1.50
2022-12-13T00:19:33.770Z,1.40
2022-12-13T00:22:41.803Z,1.40
2022-12-13T00:25:50.015Z,1.40
2022-12-13T00:29:00.407Z,1.23
2022-12-13T00:32:08.411Z,1.50
2022-12-13T00:35:16.618Z,1.00
2022-12-13T00:38:24.974Z,1.30
2022-12-13T00:41:33.712Z,1.50
2022-12-13T00:44:42.893Z,1.33
2022-12-13T00:47:50.998Z,1.23
2022-12-13T00:50:59.217Z,1.35
2022-12-13T00:54:07.458Z,1.35
2022-12-13T00:57:15.635Z,1.48
2022-12-13T01:00:25.939Z,1.40
2022-12-13T01:03:34.075Z,1.50
2022-12-13T01:06:42.657Z,1.33
2022-12-13T01:09:50.766Z,1.65
2022-12-13T01:12:58.819Z,1.30
2022-12-13T01:16:09.125Z,1.50
2022-12-13T01:19:17.297Z,1.33
2022-12-13T01:22:25.652Z,1.50
2022-12-13T01:25:34.177Z,1.02
2022-12-13T01:28:42.248Z,1.25
2022-12-13T01:31:51.987Z,1.50
2022-12-13T01:35:00.138Z,1.55
2022-12-13T01:38:16.032Z,1.15
2022-12-13T01:41:27.203Z,1.33
2022-12-13T01:45:02.127Z,1.40
2022-12-13T01:48:13.977Z,1.33
2022-12-13T01:51:24.938Z,1.55
2022-12-13T01:54:35.716Z,1.58
2022-12-13T01:57:45.788Z,1.38
2022-12-13T02:00:54.615Z,1.05
2022-12-13T02:04:04.345Z,1.20
2022-12-13T02:07:13.479Z,1.42
2022-12-13T02:10:30.910Z,1.60
2022-12-13T02:13:39.061Z,1.58
2022-12-13T02:16:52.921Z,1.40
2022-12-13T02:20:36.750Z,1.30
2022-12-13T02:24:30.911Z,1.80
2022-12-13T02:27:47.247Z,1.80
2022-12-13T02:30:58.595Z,1.10
2022-12-13T02:34:08.090Z,1.38
2022-12-13T02:37:18.881Z,1.40
2022-12-13T02:40:28.545Z,1.27
2022-12-13T02:43:45.468Z,1.52
2022-12-13T02:46:57.058Z,1.20
2022-12-13T02:50:06.955Z,1.63
2022-12-13T02:53:15.218Z,1.52
2022-12-13T02:56:23.349Z,1.67
2022-12-13T02:59:32.590Z,1.63
2022-12-13T03:02:49.281Z,1.30
2022-12-13T03:06:18.760Z,1.13
2022-12-13T03:09:33.089Z,1.67
2022-12-13T03:13:00.210Z,1.30
2022-12-13T03:16:23.041Z,1.60
2022-12-13T03:19:32.861Z,1.52
2022-12-13T03:22:41.143Z,1.38
2022-12-13T03:25:51.786Z,1.45
2022-12-13T03:29:00.205Z,1.58
2022-12-13T03:32:10.332Z,1.48
2022-12-13T03:35:21.979Z,1.35
2022-12-13T03:38:30.827Z,1.48
2022-12-13T03:41:38.951Z,1.35
2022-12-13T03:44:47.036Z,1.50
2022-12-13T03:47:55.199Z,1.38
2022-12-13T03:51:05.211Z,1.42
2022-12-13T03:54:13.535Z,1.50
2022-12-13T03:57:21.475Z,1.05
2022-12-13T04:00:29.640Z,1.52
2022-12-13T04:03:38.069Z,1.27
2022-12-13T04:06:47.330Z,1.55
2022-12-13T04:09:55.165Z,1.48
2022-12-13T04:13:35.414Z,1.35
2022-12-13T04:16:43.336Z,1.40
2022-12-13T04:19:51.129Z,1.30
2022-12-13T04:23:00.526Z,1.42
2022-12-13T04:26:08.481Z,1.48
2022-12-13T04:29:16.533Z,1.20
2022-12-13T04:32:26.550Z,1.48
2022-12-13T04:35:35.045Z,1.20
2022-12-13T04:38:44.702Z,1.30
2022-12-13T04:41:52.809Z,1.50
2022-12-13T04:45:01.047Z,1.25
2022-12-13T04:48:09.271Z,1.42
2022-12-13T04:51:17.632Z,1.60
2022-12-13T04:54:26.848Z,1.25
2022-12-13T04:57:43.561Z,1.20
2022-12-13T05:00:52.021Z,1.65
2022-12-13T05:04:00.114Z,1.35
2022-12-13T05:07:08.318Z,1.20
2022-12-13T05:10:32.178Z,1.30
2022-12-13T05:13:45.425Z,1.10
2022-12-13T05:16:53.503Z,1.45
2022-12-13T05:20:01.479Z,1.65
2022-12-13T05:23:09.283Z,1.05
2022-12-13T05:26:18.977Z,1.30
2022-12-13T05:29:27.798Z,1.42
2022-12-13T05:32:42.622Z,1.27
2022-12-13T05:35:56.345Z,1.25
2022-12-13T05:39:28.107Z,1.30
2022-12-13T05:42:38.059Z,1.60
2022-12-13T05:45:46.486Z,1.55
2022-12-13T05:48:55.117Z,1.42
2022-12-13T05:52:03.170Z,1.05
2022-12-13T05:55:11.637Z,1.48
2022-12-13T05:58:23.154Z,1.55
2022-12-13T06:01:31.270Z,1.58
2022-12-13T06:04:39.321Z,1.70
2022-12-13T06:07:50.940Z,1.48
2022-12-13T06:11:11.532Z,1.50
2022-12-13T06:14:23.219Z,1.33
2022-12-13T06:17:32.454Z,1.25
2022-12-13T06:20:40.400Z,1.08
2022-12-13T06:23:49.079Z,1.70
2022-12-13T06:26:57.248Z,1.40
2022-12-13T06:30:07.796Z,1.30
2022-12-13T06:33:15.706Z,1.30
2022-12-13T06:36:31.482Z,1.25
2022-12-13T06:39:40.040Z,1.30
2022-12-13T06:42:48.122Z,1.48
2022-12-13T06:45:57.893Z,1.23
2022-12-13T06:49:06.181Z,1.48
2022-12-13T06:52:14.590Z,1.50
2022-12-13T06:55:23.898Z,1.33
2022-12-13T06:58:32.618Z,1.23
2022-12-13T07:01:41.944Z,1.40
2022-12-13T07:04:58.645Z,1.65
2022-12-13T07:08:07.226Z,1.50
2022-12-13T07:11:15.563Z,1.33
2022-12-13T07:14:23.650Z,1.15
2022-12-13T07:17:34.633Z,2.28
2022-12-13T07:20:42.863Z,1.30
2022-12-13T07:23:54.412Z,1.30
2022-12-13T07:30:12.610Z,1.80
2022-12-13T07:33:22.528Z,1.70
2022-12-13T07:36:30.675Z,1.23
2022-12-13T07:39:38.617Z,1.42
2022-12-13T07:42:50.844Z,1.48
2022-12-13T07:45:59.836Z,1.48
2022-12-13T07:49:09.540Z,1.15
2022-12-13T07:52:17.421Z,1.50
2022-12-13T07:55:33.694Z,1.30
2022-12-13T07:58:44.069Z,1.52
2022-12-13T08:01:52.165Z,1.08
2022-12-13T08:05:06.275Z,1.42
2022-12-13T08:08:31.158Z,1.10
2022-12-13T08:11:39.923Z,1.40
2022-12-13T08:14:48.165Z,1.40
2022-12-13T08:18:01.871Z,1.60
2022-12-13T08:21:51.930Z,1.33
2022-12-13T08:24:40.258Z,1.38
2022-12-13T08:27:48.137Z,1.40
2022-12-13T08:30:56.304Z,1.50
2022-12-13T08:34:04.244Z,1.25
2022-12-13T08:37:13.854Z,1.67
2022-12-13T08:40:22.219Z,1.40
2022-12-13T08:43:30.250Z,1.52
2022-12-13T08:46:38.326Z,1.27
2022-12-13T08:49:46.271Z,1.30
2022-12-13T08:52:55.807Z,1.65
2022-12-13T08:56:04.534Z,1.55
2022-12-13T08:59:12.971Z,1.48
2022-12-13T09:02:24.111Z,1.88
2022-12-13T09:05:35.166Z,1.50
2022-12-13T09:08:45.269Z,1.60
2022-12-13T09:12:00.201Z,1.60
2022-12-13T09:15:22.577Z,2.28
2022-12-13T09:18:36.233Z,1.52
2022-12-13T09:21:44.746Z,1.33
2022-12-13T09:24:54.224Z,1.77
2022-12-13T09:28:10.506Z,1.35
2022-12-13T09:31:19.214Z,1.83
2022-12-13T09:34:27.569Z,1.27
2022-12-13T09:37:37.784Z,1.52
2022-12-13T09:40:58.598Z,1.55
2022-12-13T09:44:31.521Z,1.40
2022-12-13T09:47:38.381Z,1.45
2022-12-13T09:51:16.553Z,1.58
2022-12-13T09:54:23.626Z,1.42
2022-12-13T09:57:34.422Z,1.70
2022-12-13T10:00:42.673Z,1.50
2022-12-13T10:03:51.706Z,1.48
2022-12-13T10:06:59.766Z,1.80
2022-12-13T10:10:08.165Z,1.38
2022-12-13T10:13:19.506Z,1.60
2022-12-13T10:16:36.224Z,1.70
2022-12-13T10:19:46.555Z,1.70
2022-12-13T10:23:31.848Z,1.63
2022-12-13T10:26:24.292Z,1.67
2022-12-13T10:29:34.142Z,1.75
2022-12-13T10:32:49.398Z,1.42
2022-12-13T10:36:09.008Z,1.50
2022-12-13T10:39:18.112Z,1.50
2022-12-13T10:42:32.123Z,1.55
2022-12-13T10:45:44.244Z,1.38
2022-12-13T10:48:52.818Z,1.70
2022-12-13T10:52:00.664Z,0.90
2022-12-13T10:55:25.851Z,1.30
2022-12-13T10:58:39.195Z,1.58
2022-12-13T11:04:56.376Z,1.85
2022-12-13T11:08:20.820Z,1.15
2022-12-13T11:11:29.453Z,1.30
2022-12-13T11:14:50.802Z,1.42
2022-12-13T11:18:01.521Z,1.40
2022-12-13T11:21:09.551Z,1.30
2022-12-13T11:24:23.044Z,1.33
2022-12-13T11:27:44.414Z,1.58
2022-12-13T11:30:57.979Z,1.33
2022-12-13T11:34:15.507Z,1.83
2022-12-13T11:37:27.195Z,1.40
2022-12-13T11:40:38.797Z,1.40
2022-12-13T11:43:49.010Z,1.65
2022-12-13T11:46:58.395Z,1.40
2022-12-13T11:50:33.605Z,1.50
2022-12-13T11:53:47.734Z,1.83
2022-12-13T11:57:00.345Z,2.10
2022-12-13T12:00:36.616Z,2.40
2022-12-13T12:03:47.604Z,2.17
2022-12-13T12:07:12.345Z,1.95
2022-12-13T12:10:30.573Z,2.03
2022-12-13T12:13:51.426Z,1.90
2022-12-13T12:17:00.264Z,1.65
2022-12-13T12:20:13.288Z,1.67
2022-12-13T12:23:28.814Z,1.80
2022-12-13T12:26:41.185Z,1.52
2022-12-13T12:29:57.104Z,1.63
2022-12-13T12:33:12.849Z,2.00
2022-12-13T12:36:41.872Z,1.73
2022-12-13T12:39:58.952Z,1.40
2022-12-13T12:43:15.812Z,1.63
2022-12-13T12:47:18.201Z,1.77
2022-12-13T12:50:25.908Z,1.63
2022-12-13T12:53:39.137Z,1.42
2022-12-13T13:00:03.717Z,1.50
2022-12-13T13:03:20.629Z,1.30
2022-12-13T13:06:31.993Z,1.40
2022-12-13T13:09:40.335Z,1.17
2022-12-13T13:12:49.893Z,1.30
2022-12-13T13:15:58.387Z,1.00
2022-12-13T13:19:06.667Z,1.60
2022-12-13T13:22:43.466Z,1.48
2022-12-13T13:29:36.172Z,1.30
2022-12-13T13:32:44.241Z,1.33
2022-12-13T13:35:55.426Z,1.30
2022-12-13T13:39:03.836Z,1.50
2022-12-13T13:42:18.376Z,1.13
2022-12-13T13:45:27.701Z,1.50
2022-12-13T13:48:47.295Z,1.25
2022-12-13T13:52:24.836Z,1.27
2022-12-13T13:55:49.751Z,1.33
2022-12-13T13:59:23.628Z,1.13
2022-12-13T14:03:32.853Z,1.17
2022-12-13T14:06:51.054Z,1.40
2022-12-13T14:10:07.762Z,1.13
2022-12-13T14:13:55.340Z,1.17
2022-12-13T14:17:38.613Z,1.30
2022-12-13T14:20:50.620Z,1.13
2022-12-13T14:24:11.624Z,1.20
2022-12-13T14:27:26.545Z,1.40
2022-12-13T14:30:36.160Z,1.45
2022-12-13T14:33:47.378Z,1.25
2022-12-13T14:36:57.191Z,1.42
2022-12-13T14:40:25.901Z,1.40
2022-12-13T14:43:34.543Z,1.55
2022-12-13T14:46:52.808Z,1.23
2022-12-13T14:50:01.027Z,1.23
2022-12-13T14:53:15.941Z,1.48
2022-12-13T14:56:28.232Z,1.05
2022-12-13T15:02:50.974Z,0.90
2022-12-13T15:05:59.860Z,1.10
2022-12-13T15:09:11.902Z,1.20
2022-12-13T15:12:24.662Z,1.27
2022-12-13T15:15:34.717Z,1.50
2022-12-13T15:18:42.592Z,1.45
2022-12-13T15:22:15.914Z,1.35
2022-12-13T15:25:26.516Z,1.17
2022-12-13T15:28:36.902Z,1.35
2022-12-13T15:31:48.974Z,1.60
2022-12-13T15:34:37.426Z,1.57
2022-12-13T15:37:29.743Z,1.65
2022-12-13T15:43:05.264Z,1.10
2022-12-13T15:45:55.902Z,1.33
2022-12-13T15:48:48.495Z,1.20
2022-12-13T15:51:36.546Z,1.38
2022-12-13T15:54:24.314Z,1.40
2022-12-13T15:57:14.373Z,1.67
2022-12-13T16:00:19.925Z,1.40
2022-12-13T16:03:21.997Z,1.27
2022-12-13T16:06:10.477Z,1.30
2022-12-13T16:08:59.448Z,1.52
2022-12-13T16:11:49.499Z,1.55
2022-12-13T16:14:49.062Z,1.65
2022-12-13T16:17:37.896Z,1.30
2022-12-13T16:20:28.140Z,1.40
2022-12-13T16:23:26.549Z,1.52
2022-12-13T16:26:15.019Z,1.10
2022-12-13T16:29:06.697Z,1.30
2022-12-13T16:32:01.504Z,1.20
2022-12-13T16:34:56.007Z,1.35
2022-12-13T16:38:09.394Z,1.42
2022-12-13T16:41:17.981Z,1.48
2022-12-13T16:44:30.124Z,1.10
2022-12-13T16:47:44.633Z,1.35
2022-12-13T16:50:57.704Z,1.23
2022-12-13T16:54:07.480Z,1.60
2022-12-13T16:57:15.377Z,1.42
2022-12-13T17:00:23.742Z,1.20
2022-12-13T17:03:32.206Z,1.52
2022-12-13T17:06:40.475Z,1.50
2022-12-13T17:09:50.425Z,1.60
2022-12-13T17:12:58.526Z,1.23
2022-12-13T17:16:07.129Z,1.50
2022-12-13T17:19:17.313Z,1.35
2022-12-13T17:22:25.022Z,1.38
2022-12-13T17:25:38.737Z,1.20
2022-12-13T17:28:47.349Z,1.70
2022-12-13T17:31:55.249Z,1.30
2022-12-13T17:35:03.646Z,2.08
2022-12-13T17:38:11.934Z,1.10
2022-12-13T17:41:21.466Z,1.50
2022-12-13T17:44:29.563Z,1.40
2022-12-13T17:47:39.195Z,1.40
2022-12-13T17:50:47.421Z,1.50
2022-12-13T17:53:55.641Z,1.23
2022-12-13T17:57:05.289Z,1.65
2022-12-13T18:00:14.961Z,1.20
2022-12-13T18:03:24.567Z,1.23
2022-12-13T18:06:32.905Z,1.52
2022-12-13T18:09:41.323Z,1.42
2022-12-13T18:12:51.414Z,1.77
2022-12-13T18:15:59.771Z,1.35
2022-12-13T18:19:07.941Z,1.75
2022-12-13T18:22:16.919Z,1.60
2022-12-13T18:25:24.963Z,1.70
2022-12-13T18:28:35.017Z,1.70
2022-12-13T18:31:43.357Z,1.98
2022-12-13T18:34:54.647Z,1.73
2022-12-13T18:38:02.819Z,2.17
2022-12-13T18:41:11.491Z,1.48
2022-12-13T18:44:21.133Z,2.22
2022-12-13T18:47:29.609Z,1.85
2022-12-13T18:50:37.697Z,1.90
2022-12-13T18:53:45.873Z,2.20
2022-12-13T18:56:54.087Z,1.85
2022-12-13T19:00:03.977Z,2.00
2022-12-13T19:03:12.182Z,1.95
2022-12-13T19:06:21.163Z,1.63
2022-12-13T19:09:29.328Z,2.30
2022-12-13T19:12:37.724Z,2.13
2022-12-13T19:15:47.259Z,2.20
2022-12-13T19:18:55.593Z,2.05
2022-12-13T19:22:03.746Z,1.90
2022-12-13T19:25:12.011Z,1.98
2022-12-13T19:28:20.331Z,1.77
2022-12-13T19:31:32.047Z,2.10
2022-12-13T19:34:40.790Z,2.17
2022-12-13T19:37:48.903Z,2.05
2022-12-13T19:40:56.725Z,2.45
2022-12-13T19:44:05.518Z,1.80
2022-12-13T19:47:14.857Z,2.15
2022-12-13T19:50:23.119Z,2.15
2022-12-13T19:53:32.577Z,2.15
2022-12-13T19:56:40.734Z,2.13
2022-12-13T19:59:48.999Z,2.22
2022-12-13T20:02:59.203Z,2.60
2022-12-13T20:06:08.179Z,2.28
2022-12-13T20:09:16.030Z,2.30
2022-12-13T20:12:24.044Z,2.70
2022-12-13T20:15:32.235Z,2.10
2022-12-13T20:18:41.754Z,2.30
2022-12-13T20:21:53.620Z,2.00
2022-12-13T20:25:05.875Z,1.85
2022-12-13T20:28:16.393Z,2.40
2022-12-13T20:31:26.238Z,2.03
2022-12-13T20:34:35.926Z,2.28
2022-12-13T20:37:44.762Z,2.50
2022-12-13T20:41:00.135Z,2.42
2022-12-13T20:44:08.893Z,2.20
2022-12-13T20:47:17.267Z,2.40
2022-12-13T20:50:26.979Z,2.20
2022-12-13T20:53:35.153Z,2.13
2022-12-13T20:56:43.391Z,4.50
2022-12-13T20:59:51.339Z,2.50
2022-12-13T21:02:46.923Z,2.42
2022-12-13T21:05:35.969Z,2.25
2022-12-13T21:08:41.142Z,2.78
2022-12-13T21:11:30.223Z,2.47
2022-12-13T21:14:22.275Z,2.65
2022-12-13T21:17:11.991Z,2.63
2022-12-13T21:20:00.015Z,2.83
2022-12-13T21:22:49.449Z,3.28
2022-12-13T21:25:37.047Z,2.80
2022-12-13T21:28:25.145Z,2.50
2022-12-13T21:31:13.891Z,3.22
2022-12-13T21:34:02.236Z,3.53
2022-12-13T21:36:50.816Z,2.80
2022-12-13T21:39:39.741Z,2.85
2022-12-13T21:42:27.348Z,2.75
2022-12-13T21:45:15.228Z,2.97
2022-12-13T21:48:03.186Z,2.83
2022-12-13T21:50:51.035Z,3.55
2022-12-13T21:53:38.675Z,2.95
2022-12-13T21:56:46.142Z,4.18
2022-12-13T21:59:33.886Z,3.17
2022-12-13T22:02:21.787Z,2.58
2022-12-13T22:05:28.529Z,3.67
2022-12-13T22:08:36.590Z,3.55
2022-12-13T22:11:46.132Z,3.50
2022-12-13T22:14:54.443Z,3.33
2022-12-13T22:18:02.664Z,2.85
2022-12-13T22:21:10.610Z,3.55
2022-12-13T22:24:18.830Z,2.72
2022-12-13T22:27:28.530Z,2.80
2022-12-13T22:30:36.732Z,2.65
2022-12-13T22:33:45.096Z,2.78
2022-12-13T22:36:53.325Z,3.08
2022-12-13T22:40:01.461Z,2.95
2022-12-13T22:43:13.768Z,2.88
2022-12-13T22:46:24.046Z,3.50
2022-12-13T22:49:31.934Z,3.20
2022-12-13T22:52:40.714Z,2.90
2022-12-13T22:55:48.696Z,3.03
2022-12-13T22:58:59.090Z,3.00
2022-12-13T23:02:07.691Z,2.67
2022-12-13T23:05:16.221Z,3.08
2022-12-13T23:08:24.702Z,3.60
2022-12-13T23:11:50.379Z,4.00
2022-12-13T23:14:59.589Z,3.08
2022-12-13T23:18:07.428Z,2.92
2022-12-13T23:21:15.849Z,2.80
2022-12-13T23:24:23.926Z,2.92
2022-12-13T23:27:32.065Z,2.95
2022-12-13T23:30:41.513Z,3.35
2022-12-13T23:33:49.808Z,2.97
2022-12-13T23:36:57.713Z,3.20
2022-12-13T23:40:06.845Z,2.95
2022-12-13T23:43:14.964Z,2.95
2022-12-13T23:46:25.386Z,3.22
2022-12-13T23:49:33.612Z,2.97
2022-12-13T23:52:41.497Z,3.28
2022-12-13T23:55:49.478Z,2.75
2022-12-13T23:58:57.339Z,2.60
